sensor_id;sensor_type;location;lat;lon;timestamp;pressure;altitude;pressure_sealevel;temperature;humidity
57847;BME280;43675;50.030;21.952;2022-12-19T00:00:01;101023.56;;;-6.41;67.26
57847;BME280;43675;50.030;21.952;2022-12-19T00:02:27;101007.14;;;-6.45;67.23
57847;BME280;43675;50.030;21.952;2022-12-19T00:04:53;101009.05;;;-6.50;67.11
57847;BME280;43675;50.030;21.952;2022-12-19T00:07:19;101006.34;;;-6.60;66.96
57847;BME280;43675;50.030;21.952;2022-12-19T00:09:44;101004.58;;;-6.73;66.91
57847;BME280;43675;50.030;21.952;2022-12-19T00:12:10;101005.48;;;-6.87;66.93
57847;BME280;43675;50.030;21.952;2022-12-19T00:14:36;101000.75;;;-7.02;66.92
57847;BME280;43675;50.030;21.952;2022-12-19T00:17:01;101003.80;;;-7.17;66.98
57847;BME280;43675;50.030;21.952;2022-12-19T00:19:27;101005.57;;;-7.32;67.06
57847;BME280;43675;50.030;21.952;2022-12-19T00:21:53;101010.36;;;-7.46;67.16
57847;BME280;43675;50.030;21.952;2022-12-19T00:24:19;101004.70;;;-7.60;67.25
57847;BME280;43675;50.030;21.952;2022-12-19T00:26:44;101000.37;;;-7.76;67.32
57847;BME280;43675;50.030;21.952;2022-12-19T00:29:10;101002.39;;;-7.87;67.42
57847;BME280;43675;50.030;21.952;2022-12-19T00:31:36;101001.93;;;-8.01;67.57
57847;BME280;43675;50.030;21.952;2022-12-19T00:34:02;100998.31;;;-8.12;67.70
57847;BME280;43675;50.030;21.952;2022-12-19T00:36:30;101003.85;;;-8.24;67.84
57847;BME280;43675;50.030;21.952;2022-12-19T00:38:58;100998.46;;;-8.33;67.98
57847;BME280;43675;50.030;21.952;2022-12-19T00:41:26;100996.08;;;-8.42;68.09
57847;BME280;43675;50.030;21.952;2022-12-19T00:46:21;100994.38;;;-8.59;68.30
57847;BME280;43675;50.030;21.952;2022-12-19T00:48:47;100987.20;;;-8.67;68.40
57847;BME280;43675;50.030;21.952;2022-12-19T00:51:15;100985.59;;;-8.73;68.50
57847;BME280;43675;50.030;21.952;2022-12-19T00:53:42;100987.44;;;-8.78;68.57
57847;BME280;43675;50.030;21.952;2022-12-19T00:56:11;100991.51;;;-8.84;68.66
57847;BME280;43675;50.030;21.952;2022-12-19T00:58:37;100985.61;;;-8.90;68.69
57847;BME280;43675;50.030;21.952;2022-12-19T01:01:08;100996.14;;;-8.96;68.76
57847;BME280;43675;50.030;21.952;2022-12-19T01:03:34;100995.86;;;-9.02;68.82
57847;BME280;43675;50.030;21.952;2022-12-19T01:06:00;100994.68;;;-9.08;68.91
57847;BME280;43675;50.030;21.952;2022-12-19T01:08:25;100990.02;;;-9.13;69.01
57847;BME280;43675;50.030;21.952;2022-12-19T01:10:51;100991.84;;;-9.17;69.06
57847;BME280;43675;50.030;21.952;2022-12-19T01:13:20;100983.31;;;-9.22;69.11
57847;BME280;43675;50.030;21.952;2022-12-19T01:15:46;100986.89;;;-9.27;69.20
57847;BME280;43675;50.030;21.952;2022-12-19T01:18:12;100981.34;;;-9.31;69.26
57847;BME280;43675;50.030;21.952;2022-12-19T01:20:39;100970.62;;;-9.37;69.29
57847;BME280;43675;50.030;21.952;2022-12-19T01:23:06;100962.04;;;-9.40;69.33
57847;BME280;43675;50.030;21.952;2022-12-19T01:25:33;100963.48;;;-9.46;69.39
57847;BME280;43675;50.030;21.952;2022-12-19T01:27:59;100962.27;;;-9.49;69.48
57847;BME280;43675;50.030;21.952;2022-12-19T01:30:25;100961.87;;;-9.52;69.58
57847;BME280;43675;50.030;21.952;2022-12-19T01:32:52;100958.09;;;-9.56;69.60
57847;BME280;43675;50.030;21.952;2022-12-19T01:35:17;100961.16;;;-9.59;69.66
57847;BME280;43675;50.030;21.952;2022-12-19T01:37:43;100947.39;;;-9.64;69.70
57847;BME280;43675;50.030;21.952;2022-12-19T01:40:10;100948.75;;;-9.65;69.77
57847;BME280;43675;50.030;21.952;2022-12-19T01:42:37;100950.56;;;-9.69;69.79
57847;BME280;43675;50.030;21.952;2022-12-19T01:50:12;100936.82;;;-9.75;70.21
57847;BME280;43675;50.030;21.952;2022-12-19T01:52:39;100941.16;;;-9.76;70.32
57847;BME280;43675;50.030;21.952;2022-12-19T01:55:06;100939.86;;;-9.76;70.39
57847;BME280;43675;50.030;21.952;2022-12-19T01:57:32;100929.52;;;-9.77;70.41
57847;BME280;43675;50.030;21.952;2022-12-19T01:59:59;100930.40;;;-9.78;70.40
57847;BME280;43675;50.030;21.952;2022-12-19T02:02:28;100926.99;;;-9.80;70.41
57847;BME280;43675;50.030;21.952;2022-12-19T02:04:55;100927.45;;;-9.82;70.42
57847;BME280;43675;50.030;21.952;2022-12-19T02:07:22;100931.37;;;-9.84;70.47
57847;BME280;43675;50.030;21.952;2022-12-19T02:09:51;100920.61;;;-9.86;70.44
57847;BME280;43675;50.030;21.952;2022-12-19T02:12:18;100923.70;;;-9.88;70.50
57847;BME280;43675;50.030;21.952;2022-12-19T02:14:44;100925.02;;;-9.90;70.58
57847;BME280;43675;50.030;21.952;2022-12-19T02:17:23;100918.11;;;-9.91;70.63
57847;BME280;43675;50.030;21.952;2022-12-19T02:31:26;100916.11;;;-9.99;70.81
57847;BME280;43675;50.030;21.952;2022-12-19T02:33:55;100911.41;;;-10.01;70.83
57847;BME280;43675;50.030;21.952;2022-12-19T02:36:37;100915.32;;;-10.02;70.83
57847;BME280;43675;50.030;21.952;2022-12-19T02:41:38;100924.13;;;-10.10;70.74
57847;BME280;43675;50.030;21.952;2022-12-19T02:44:05;100917.27;;;-10.12;70.77
57847;BME280;43675;50.030;21.952;2022-12-19T02:46:31;100922.53;;;-10.15;70.79
57847;BME280;43675;50.030;21.952;2022-12-19T02:48:57;100917.84;;;-10.19;70.81
57847;BME280;43675;50.030;21.952;2022-12-19T02:51:23;100917.47;;;-10.21;70.82
57847;BME280;43675;50.030;21.952;2022-12-19T02:53:49;100914.09;;;-10.25;70.86
57847;BME280;43675;50.030;21.952;2022-12-19T02:56:21;100922.75;;;-10.26;70.90
57847;BME280;43675;50.030;21.952;2022-12-19T03:01:50;100936.23;;;-10.29;71.04
57847;BME280;43675;50.030;21.952;2022-12-19T03:06:51;100937.67;;;-10.35;70.94
57847;BME280;43675;50.030;21.952;2022-12-19T03:11:49;100942.06;;;-10.39;71.04
57847;BME280;43675;50.030;21.952;2022-12-19T03:14:18;100937.31;;;-10.39;71.03
57847;BME280;43675;50.030;21.952;2022-12-19T03:16:45;100937.34;;;-10.42;70.97
57847;BME280;43675;50.030;21.952;2022-12-19T03:19:13;100931.34;;;-10.44;71.01
57847;BME280;43675;50.030;21.952;2022-12-19T03:21:42;100929.20;;;-10.46;71.00
57847;BME280;43675;50.030;21.952;2022-12-19T03:24:10;100934.88;;;-10.48;71.02
57847;BME280;43675;50.030;21.952;2022-12-19T03:26:45;100943.10;;;-10.49;70.99
57847;BME280;43675;50.030;21.952;2022-12-19T03:29:12;100937.53;;;-10.51;70.91
57847;BME280;43675;50.030;21.952;2022-12-19T03:31:39;100933.28;;;-10.56;70.89
57847;BME280;43675;50.030;21.952;2022-12-19T03:34:18;100924.70;;;-10.59;70.89
57847;BME280;43675;50.030;21.952;2022-12-19T03:36:46;100918.67;;;-10.61;71.00
57847;BME280;43675;50.030;21.952;2022-12-19T03:39:13;100916.95;;;-10.62;70.89
57847;BME280;43675;50.030;21.952;2022-12-19T03:41:42;100917.89;;;-10.66;70.90
57847;BME280;43675;50.030;21.952;2022-12-19T03:44:10;100912.31;;;-10.67;70.95
57847;BME280;43675;50.030;21.952;2022-12-19T03:46:40;100909.30;;;-10.70;70.91
57847;BME280;43675;50.030;21.952;2022-12-19T03:49:07;100902.88;;;-10.73;70.94
57847;BME280;43675;50.030;21.952;2022-12-19T03:51:53;100896.40;;;-10.73;71.04
57847;BME280;43675;50.030;21.952;2022-12-19T03:54:27;100890.34;;;-10.72;71.08
57847;BME280;43675;50.030;21.952;2022-12-19T03:57:05;100881.27;;;-10.73;71.11
57847;BME280;43675;50.030;21.952;2022-12-19T03:59:43;100890.34;;;-10.73;71.13
57847;BME280;43675;50.030;21.952;2022-12-19T04:02:12;100889.47;;;-10.72;71.11
57847;BME280;43675;50.030;21.952;2022-12-19T04:04:46;100887.31;;;-10.73;71.08
57847;BME280;43675;50.030;21.952;2022-12-19T04:07:09;100885.59;;;-10.74;71.07
57847;BME280;43675;50.030;21.952;2022-12-19T04:09:36;100884.79;;;-10.76;71.00
57847;BME280;43675;50.030;21.952;2022-12-19T04:12:07;100883.06;;;-10.77;71.02
57847;BME280;43675;50.030;21.952;2022-12-19T04:14:35;100875.72;;;-10.77;71.06
57847;BME280;43675;50.030;21.952;2022-12-19T04:17:24;100879.17;;;-10.77;71.13
57847;BME280;43675;50.030;21.952;2022-12-19T04:22:31;100861.94;;;-10.79;71.02
57847;BME280;43675;50.030;21.952;2022-12-19T04:24:58;100877.09;;;-10.80;71.01
57847;BME280;43675;50.030;21.952;2022-12-19T04:27:26;100871.04;;;-10.81;70.92
57847;BME280;43675;50.030;21.952;2022-12-19T04:29:54;100862.39;;;-10.81;70.87
57847;BME280;43675;50.030;21.952;2022-12-19T04:32:23;100862.01;;;-10.82;70.86
57847;BME280;43675;50.030;21.952;2022-12-19T04:34:49;100857.27;;;-10.84;70.83
57847;BME280;43675;50.030;21.952;2022-12-19T04:37:15;100853.87;;;-10.86;70.79
57847;BME280;43675;50.030;21.952;2022-12-19T04:39:41;100855.62;;;-10.88;70.70
57847;BME280;43675;50.030;21.952;2022-12-19T04:42:07;100855.66;;;-10.90;70.62
57847;BME280;43675;50.030;21.952;2022-12-19T04:44:32;100862.17;;;-10.93;70.58
57847;BME280;43675;50.030;21.952;2022-12-19T04:46:58;100854.03;;;-10.97;70.54
57847;BME280;43675;50.030;21.952;2022-12-19T04:49:24;100863.16;;;-10.98;70.52
57847;BME280;43675;50.030;21.952;2022-12-19T04:51:49;100850.26;;;-11.01;70.52
57847;BME280;43675;50.030;21.952;2022-12-19T04:54:15;100855.89;;;-11.04;70.47
57847;BME280;43675;50.030;21.952;2022-12-19T04:56:41;100857.25;;;-11.07;70.44
57847;BME280;43675;50.030;21.952;2022-12-19T04:59:06;100865.09;;;-11.10;70.46
57847;BME280;43675;50.030;21.952;2022-12-19T05:01:32;100873.74;;;-11.11;70.43
57847;BME280;43675;50.030;21.952;2022-12-19T05:03:58;100870.73;;;-11.13;70.40
57847;BME280;43675;50.030;21.952;2022-12-19T05:06:24;100863.87;;;-11.14;70.45
57847;BME280;43675;50.030;21.952;2022-12-19T05:08:49;100864.31;;;-11.16;70.42
57847;BME280;43675;50.030;21.952;2022-12-19T05:11:17;100869.94;;;-11.17;70.42
57847;BME280;43675;50.030;21.952;2022-12-19T05:13:42;100861.78;;;-11.19;70.45
57847;BME280;43675;50.030;21.952;2022-12-19T05:16:10;100855.73;;;-11.18;70.44
57847;BME280;43675;50.030;21.952;2022-12-19T05:18:36;100854.45;;;-11.20;70.39
57847;BME280;43675;50.030;21.952;2022-12-19T05:21:03;100857.52;;;-11.22;70.45
57847;BME280;43675;50.030;21.952;2022-12-19T05:23:29;100857.52;;;-11.22;70.45
57847;BME280;43675;50.030;21.952;2022-12-19T05:25:59;100849.41;;;-11.29;70.26
57847;BME280;43675;50.030;21.952;2022-12-19T05:28:25;100854.58;;;-11.27;70.18
57847;BME280;43675;50.030;21.952;2022-12-19T05:30:51;100848.97;;;-11.28;70.16
57847;BME280;43675;50.030;21.952;2022-12-19T05:33:17;100851.62;;;-11.31;70.14
57847;BME280;43675;50.030;21.952;2022-12-19T05:35:42;100849.51;;;-11.33;70.16
57847;BME280;43675;50.030;21.952;2022-12-19T05:38:08;100849.52;;;-11.35;70.12
57847;BME280;43675;50.030;21.952;2022-12-19T05:40:34;100852.59;;;-11.37;70.10
57847;BME280;43675;50.030;21.952;2022-12-19T05:43:00;100850.02;;;-11.38;70.12
57847;BME280;43675;50.030;21.952;2022-12-19T05:45:26;100850.45;;;-11.39;70.13
57847;BME280;43675;50.030;21.952;2022-12-19T05:47:51;100848.34;;;-11.41;70.15
57847;BME280;43675;50.030;21.952;2022-12-19T05:50:17;100849.64;;;-11.41;70.16
57847;BME280;43675;50.030;21.952;2022-12-19T05:52:43;100843.98;;;-11.40;70.08
57847;BME280;43675;50.030;21.952;2022-12-19T05:55:09;100831.08;;;-11.42;70.04
57847;BME280;43675;50.030;21.952;2022-12-19T05:57:36;100830.71;;;-11.46;69.96
57847;BME280;43675;50.030;21.952;2022-12-19T06:00:04;100823.06;;;-11.54;69.80
57847;BME280;43675;50.030;21.952;2022-12-19T06:02:32;100821.77;;;-11.54;69.80
57847;BME280;43675;50.030;21.952;2022-12-19T06:04:58;100826.03;;;-11.51;69.83
57847;BME280;43675;50.030;21.952;2022-12-19T06:07:23;100821.28;;;-11.52;69.86
57847;BME280;43675;50.030;21.952;2022-12-19T06:09:49;100818.30;;;-11.53;69.88
57847;BME280;43675;50.030;21.952;2022-12-19T06:12:15;100817.88;;;-11.54;69.91
57847;BME280;43675;50.030;21.952;2022-12-19T06:14:41;100824.36;;;-11.54;69.98
57847;BME280;43675;50.030;21.952;2022-12-19T06:17:06;100829.49;;;-11.52;70.08
57847;BME280;43675;50.030;21.952;2022-12-19T06:19:32;100825.97;;;-11.48;70.12
57847;BME280;43675;50.030;21.952;2022-12-19T06:21:58;100828.55;;;-11.46;70.13
57847;BME280;43675;50.030;21.952;2022-12-19T06:24:24;100824.19;;;-11.44;70.14
57847;BME280;43675;50.030;21.952;2022-12-19T06:26:50;100830.64;;;-11.41;70.20
57847;BME280;43675;50.030;21.952;2022-12-19T06:29:15;100829.28;;;-11.38;70.28
57847;BME280;43675;50.030;21.952;2022-12-19T06:31:41;100834.77;;;-11.31;70.38
57847;BME280;43675;50.030;21.952;2022-12-19T06:34:09;100818.80;;;-11.32;70.59
57847;BME280;43675;50.030;21.952;2022-12-19T06:36:35;100833.27;;;-11.19;70.51
57847;BME280;43675;50.030;21.952;2022-12-19T06:39:01;100831.85;;;-11.13;70.61
57847;BME280;43675;50.030;21.952;2022-12-19T06:41:27;100838.62;;;-11.05;70.65
57847;BME280;43675;50.030;21.952;2022-12-19T06:43:58;100822.63;;;-11.04;70.64
57847;BME280;43675;50.030;21.952;2022-12-19T06:46:24;100837.38;;;-10.84;70.89
57847;BME280;43675;50.030;21.952;2022-12-19T06:48:50;100837.38;;;-10.84;70.89
57847;BME280;43675;50.030;21.952;2022-12-19T06:51:15;100827.73;;;-10.77;70.74
57847;BME280;43675;50.030;21.952;2022-12-19T06:53:41;100834.54;;;-10.70;70.73
57847;BME280;43675;50.030;21.952;2022-12-19T06:56:07;100829.22;;;-10.64;70.76
57847;BME280;43675;50.030;21.952;2022-12-19T06:58:33;100835.13;;;-10.58;70.76
57847;BME280;43675;50.030;21.952;2022-12-19T07:00:59;100842.33;;;-10.49;70.75
57847;BME280;43675;50.030;21.952;2022-12-19T07:03:31;100845.25;;;-10.44;70.77
57847;BME280;43675;50.030;21.952;2022-12-19T07:05:57;100847.27;;;-10.37;70.73
57847;BME280;43675;50.030;21.952;2022-12-19T07:08:23;100854.97;;;-10.33;70.63
57847;BME280;43675;50.030;21.952;2022-12-19T07:10:49;100854.88;;;-10.28;70.60
57847;BME280;43675;50.030;21.952;2022-12-19T07:13:14;100853.49;;;-10.24;70.55
57847;BME280;43675;50.030;21.952;2022-12-19T07:15:40;100862.07;;;-10.20;70.48
57847;BME280;43675;50.030;21.952;2022-12-19T07:18:07;100870.21;;;-10.16;70.43
57847;BME280;43675;50.030;21.952;2022-12-19T07:20:35;100869.25;;;-10.14;70.37
57847;BME280;43675;50.030;21.952;2022-12-19T07:23:03;100865.72;;;-10.11;70.29
57847;BME280;43675;50.030;21.952;2022-12-19T07:25:29;100859.20;;;-10.10;70.24
57847;BME280;43675;50.030;21.952;2022-12-19T07:27:55;100863.94;;;-10.08;70.18
57847;BME280;43675;50.030;21.952;2022-12-19T07:30:21;100866.91;;;-10.05;70.16
57847;BME280;43675;50.030;21.952;2022-12-19T07:32:46;100860.34;;;-10.02;70.15
57847;BME280;43675;50.030;21.952;2022-12-19T07:35:12;100864.16;;;-9.99;70.17
57847;BME280;43675;50.030;21.952;2022-12-19T07:37:38;100866.22;;;-9.94;70.19
57847;BME280;43675;50.030;21.952;2022-12-19T07:40:04;100869.15;;;-9.88;70.20
57847;BME280;43675;50.030;21.952;2022-12-19T07:42:30;100871.17;;;-9.83;70.22
57847;BME280;43675;50.030;21.952;2022-12-19T07:44:56;100866.22;;;-9.75;70.25
57847;BME280;43675;50.030;21.952;2022-12-19T07:47:22;100867.79;;;-9.68;70.26
57847;BME280;43675;50.030;21.952;2022-12-19T07:49:47;100859.38;;;-9.60;70.26
57847;BME280;43675;50.030;21.952;2022-12-19T07:52:13;100852.25;;;-9.51;70.28
57847;BME280;43675;50.030;21.952;2022-12-19T07:54:39;100850.72;;;-9.41;70.28
57847;BME280;43675;50.030;21.952;2022-12-19T07:57:04;100850.06;;;-9.33;70.29
57847;BME280;43675;50.030;21.952;2022-12-19T07:59:30;100839.44;;;-9.24;70.29
57847;BME280;43675;50.030;21.952;2022-12-19T08:01:56;100842.68;;;-9.14;70.29
57847;BME280;43675;50.030;21.952;2022-12-19T08:04:21;100841.13;;;-9.05;70.32
57847;BME280;43675;50.030;21.952;2022-12-19T08:06:47;100838.70;;;-8.95;70.31
57847;BME280;43675;50.030;21.952;2022-12-19T08:09:13;100829.81;;;-8.86;70.32
57847;BME280;43675;50.030;21.952;2022-12-19T08:11:39;100830.82;;;-8.76;70.33
57847;BME280;43675;50.030;21.952;2022-12-19T08:14:05;100820.17;;;-8.67;70.36
57847;BME280;43675;50.030;21.952;2022-12-19T08:16:30;100820.75;;;-8.57;70.33
57847;BME280;43675;50.030;21.952;2022-12-19T08:18:56;100816.16;;;-8.47;70.36
57847;BME280;43675;50.030;21.952;2022-12-19T08:21:23;100821.05;;;-8.37;70.35
57847;BME280;43675;50.030;21.952;2022-12-19T08:23:49;100820.76;;;-8.28;70.33
57847;BME280;43675;50.030;21.952;2022-12-19T08:26:16;100817.41;;;-8.18;70.33
57847;BME280;43675;50.030;21.952;2022-12-19T08:28:42;100819.31;;;-8.08;70.32
57847;BME280;43675;50.030;21.952;2022-12-19T08:31:11;100815.52;;;-7.98;70.35
57847;BME280;43675;50.030;21.952;2022-12-19T08:33:37;100813.05;;;-7.88;70.34
57847;BME280;43675;50.030;21.952;2022-12-19T08:36:08;100809.22;;;-7.77;70.34
57847;BME280;43675;50.030;21.952;2022-12-19T08:38:34;100811.06;;;-7.67;70.37
57847;BME280;43675;50.030;21.952;2022-12-19T08:41:00;100799.84;;;-7.56;70.42
57847;BME280;43675;50.030;21.952;2022-12-19T08:43:27;100795.97;;;-7.44;70.42
57847;BME280;43675;50.030;21.952;2022-12-19T08:45:53;100795.23;;;-7.35;70.43
57847;BME280;43675;50.030;21.952;2022-12-19T08:48:19;100783.09;;;-7.23;70.43
57847;BME280;43675;50.030;21.952;2022-12-19T08:50:55;100788.83;;;-7.13;70.40
57847;BME280;43675;50.030;21.952;2022-12-19T08:53:23;100780.66;;;-7.02;70.39
57847;BME280;43675;50.030;21.952;2022-12-19T08:55:57;100782.87;;;-6.92;70.40
57847;BME280;43675;50.030;21.952;2022-12-19T08:58:23;100784.20;;;-6.80;70.36
57847;BME280;43675;50.030;21.952;2022-12-19T09:00:49;100778.83;;;-6.76;70.43
57847;BME280;43675;50.030;21.952;2022-12-19T09:03:15;100780.88;;;-6.60;70.38
57847;BME280;43675;50.030;21.952;2022-12-19T09:05:41;100782.59;;;-6.48;70.37
57847;BME280;43675;50.030;21.952;2022-12-19T09:08:06;100783.50;;;-6.37;70.37
57847;BME280;43675;50.030;21.952;2022-12-19T09:10:37;100782.64;;;-6.26;70.41
57847;BME280;43675;50.030;21.952;2022-12-19T09:13:04;100776.17;;;-6.16;70.36
57847;BME280;43675;50.030;21.952;2022-12-19T09:15:30;100772.69;;;-6.05;70.29
57847;BME280;43675;50.030;21.952;2022-12-19T09:17:55;100772.26;;;-5.94;70.23
57847;BME280;43675;50.030;21.952;2022-12-19T09:20:21;100767.05;;;-5.84;70.23
57847;BME280;43675;50.030;21.952;2022-12-19T09:22:47;100759.63;;;-5.73;70.26
57847;BME280;43675;50.030;21.952;2022-12-19T09:25:13;100753.09;;;-5.63;70.29
57847;BME280;43675;50.030;21.952;2022-12-19T09:27:39;100742.17;;;-5.52;70.27
57847;BME280;43675;50.030;21.952;2022-12-19T09:30:05;100739.14;;;-5.42;70.31
57847;BME280;43675;50.030;21.952;2022-12-19T09:32:31;100736.52;;;-5.32;70.24
57847;BME280;43675;50.030;21.952;2022-12-19T09:34:57;100734.74;;;-5.21;70.20
57847;BME280;43675;50.030;21.952;2022-12-19T09:37:23;100733.45;;;-5.11;70.14
57847;BME280;43675;50.030;21.952;2022-12-19T09:39:48;100737.36;;;-5.01;70.12
57847;BME280;43675;50.030;21.952;2022-12-19T09:45:32;100731.66;;;-4.80;70.00
57847;BME280;43675;50.030;21.952;2022-12-19T09:47:57;100719.92;;;-4.71;70.05
57847;BME280;43675;50.030;21.952;2022-12-19T09:53:23;100709.39;;;-4.51;69.96
57847;BME280;43675;50.030;21.952;2022-12-19T09:55:48;100699.31;;;-4.42;69.91
57847;BME280;43675;50.030;21.952;2022-12-19T09:58:43;100705.84;;;-4.32;69.89
57847;BME280;43675;50.030;21.952;2022-12-19T10:01:31;100701.01;;;-4.22;69.73
57847;BME280;43675;50.030;21.952;2022-12-19T10:04:02;100699.97;;;-4.09;69.71
57847;BME280;43675;50.030;21.952;2022-12-19T10:06:25;100686.80;;;-3.99;69.69
57847;BME280;43675;50.030;21.952;2022-12-19T10:08:51;100686.81;;;-3.91;69.58
57847;BME280;43675;50.030;21.952;2022-12-19T10:19:31;100670.19;;;-3.55;69.28
57847;BME280;43675;50.030;21.952;2022-12-19T10:35:19;100659.47;;;-3.09;68.49
57847;BME280;43675;50.030;21.952;2022-12-19T10:38:11;100651.98;;;-3.08;68.84
57847;BME280;43675;50.030;21.952;2022-12-19T10:40:33;100651.80;;;-2.97;68.51
57847;BME280;43675;50.030;21.952;2022-12-19T10:43:05;100649.23;;;-2.90;68.26
57847;BME280;43675;50.030;21.952;2022-12-19T10:45:35;100645.37;;;-2.82;68.17
57847;BME280;43675;50.030;21.952;2022-12-19T10:48:02;100633.20;;;-2.76;68.00
57847;BME280;43675;50.030;21.952;2022-12-19T10:50:29;100632.32;;;-2.68;67.90
57847;BME280;43675;50.030;21.952;2022-12-19T10:53:07;100625.33;;;-2.61;67.77
57847;BME280;43675;50.030;21.952;2022-12-19T10:58:24;100618.47;;;-2.48;67.54
57847;BME280;43675;50.030;21.952;2022-12-19T11:03:25;100610.73;;;-2.35;67.30
57847;BME280;43675;50.030;21.952;2022-12-19T11:05:53;100609.63;;;-2.31;67.13
57847;BME280;43675;50.030;21.952;2022-12-19T11:08:28;100608.44;;;-2.25;67.05
57847;BME280;43675;50.030;21.952;2022-12-19T11:16:03;100594.98;;;-2.12;66.70
57847;BME280;43675;50.030;21.952;2022-12-19T11:18:44;100589.08;;;-2.09;66.51
57847;BME280;43675;50.030;21.952;2022-12-19T11:21:26;100588.42;;;-2.05;66.38
57847;BME280;43675;50.030;21.952;2022-12-19T11:23:59;100592.19;;;-2.02;66.36
57847;BME280;43675;50.030;21.952;2022-12-19T11:31:42;100588.85;;;-1.90;65.99
57847;BME280;43675;50.030;21.952;2022-12-19T11:34:16;100582.94;;;-1.86;66.03
57847;BME280;43675;50.030;21.952;2022-12-19T11:37:02;100576.95;;;-1.81;65.90
57847;BME280;43675;50.030;21.952;2022-12-19T11:45:19;100558.65;;;-1.69;65.60
57847;BME280;43675;50.030;21.952;2022-12-19T11:47:53;100568.98;;;-1.66;65.55
57847;BME280;43675;50.030;21.952;2022-12-19T11:50:31;100561.75;;;-1.62;65.53
57847;BME280;43675;50.030;21.952;2022-12-19T11:58:26;100543.41;;;-1.57;65.11
57847;BME280;43675;50.030;21.952;2022-12-19T12:01:45;100544.56;;;-1.54;64.99
57847;BME280;43675;50.030;21.952;2022-12-19T12:06:50;100546.73;;;-1.53;64.95
57847;BME280;43675;50.030;21.952;2022-12-19T12:12:21;100535.07;;;-1.49;64.72
57847;BME280;43675;50.030;21.952;2022-12-19T12:23:21;100514.83;;;-1.49;64.35
57847;BME280;43675;50.030;21.952;2022-12-19T12:26:09;100513.16;;;-1.50;64.26
57847;BME280;43675;50.030;21.952;2022-12-19T12:28:58;100501.30;;;-1.50;64.18
57847;BME280;43675;50.030;21.952;2022-12-19T12:34:43;100495.66;;;-1.51;63.96
57847;BME280;43675;50.030;21.952;2022-12-19T12:43:02;100498.09;;;-1.55;63.79
57847;BME280;43675;50.030;21.952;2022-12-19T12:50:40;100476.38;;;-1.58;63.63
57847;BME280;43675;50.030;21.952;2022-12-19T12:53:07;100480.80;;;-1.59;63.58
57847;BME280;43675;50.030;21.952;2022-12-19T12:55:36;100472.13;;;-1.61;63.48
57847;BME280;43675;50.030;21.952;2022-12-19T12:58:03;100478.36;;;-1.62;63.41
57847;BME280;43675;50.030;21.952;2022-12-19T13:00:34;100474.02;;;-1.63;63.39
57847;BME280;43675;50.030;21.952;2022-12-19T13:05:53;100444.88;;;-1.67;63.22
57847;BME280;43675;50.030;21.952;2022-12-19T13:10:55;100461.14;;;-1.74;63.12
57847;BME280;43675;50.030;21.952;2022-12-19T13:19:13;100462.66;;;-1.84;63.07
57847;BME280;43675;50.030;21.952;2022-12-19T13:24:51;100466.22;;;-1.93;63.02
57847;BME280;43675;50.030;21.952;2022-12-19T13:30:12;100448.80;;;-2.02;63.05
57847;BME280;43675;50.030;21.952;2022-12-19T13:37:42;100449.92;;;-2.13;63.04
57847;BME280;43675;50.030;21.952;2022-12-19T13:40:30;100450.96;;;-2.16;63.00
57847;BME280;43675;50.030;21.952;2022-12-19T13:45:32;100456.83;;;-2.26;63.04
57847;BME280;43675;50.030;21.952;2022-12-19T13:47:59;100457.20;;;-2.32;63.04
57847;BME280;43675;50.030;21.952;2022-12-19T13:50:38;100460.95;;;-2.36;63.11
57847;BME280;43675;50.030;21.952;2022-12-19T13:53:17;100461.29;;;-2.43;63.10
57847;BME280;43675;50.030;21.952;2022-12-19T13:55:43;100464.36;;;-2.50;63.13
57847;BME280;43675;50.030;21.952;2022-12-19T13:58:24;100459.66;;;-2.59;63.16
57847;BME280;43675;50.030;21.952;2022-12-19T14:00:51;100451.26;;;-2.66;63.18
57847;BME280;43675;50.030;21.952;2022-12-19T14:03:24;100455.25;;;-2.74;63.21
57847;BME280;43675;50.030;21.952;2022-12-19T14:05:48;100456.55;;;-2.81;63.26
57847;BME280;43675;50.030;21.952;2022-12-19T14:08:21;100454.45;;;-2.91;63.28
57847;BME280;43675;50.030;21.952;2022-12-19T14:10:45;100446.91;;;-2.97;63.38
57847;BME280;43675;50.030;21.952;2022-12-19T14:13:16;100441.55;;;-3.02;63.46
57847;BME280;43675;50.030;21.952;2022-12-19T14:15:45;100447.52;;;-3.07;63.45
57847;BME280;43675;50.030;21.952;2022-12-19T14:18:27;100435.55;;;-3.13;63.50
57847;BME280;43675;50.030;21.952;2022-12-19T14:21:14;100431.19;;;-3.21;63.54
57847;BME280;43675;50.030;21.952;2022-12-19T14:23:40;100436.87;;;-3.28;63.54
57847;BME280;43675;50.030;21.952;2022-12-19T14:26:18;100432.61;;;-3.38;63.57
57847;BME280;43675;50.030;21.952;2022-12-19T14:28:44;100423.84;;;-3.46;63.63
57847;BME280;43675;50.030;21.952;2022-12-19T14:31:13;100421.25;;;-3.54;63.73
57847;BME280;43675;50.030;21.952;2022-12-19T14:33:42;100419.05;;;-3.62;63.80
57847;BME280;43675;50.030;21.952;2022-12-19T14:36:08;100408.11;;;-3.70;63.89
57847;BME280;43675;50.030;21.952;2022-12-19T14:38:35;100405.34;;;-3.75;64.04
57847;BME280;43675;50.030;21.952;2022-12-19T14:41:01;100406.53;;;-3.81;64.13
57847;BME280;43675;50.030;21.952;2022-12-19T14:43:30;100404.22;;;-3.87;64.23
57847;BME280;43675;50.030;21.952;2022-12-19T14:48:45;100406.17;;;-3.99;64.38
57847;BME280;43675;50.030;21.952;2022-12-19T14:51:13;100406.59;;;-4.07;64.53
57847;BME280;43675;50.030;21.952;2022-12-19T14:53:42;100399.97;;;-4.14;64.66
57847;BME280;43675;50.030;21.952;2022-12-19T14:56:11;100393.66;;;-4.18;64.76
57847;BME280;43675;50.030;21.952;2022-12-19T14:58:38;100384.36;;;-4.24;64.88
57847;BME280;43675;50.030;21.952;2022-12-19T15:01:17;100382.36;;;-4.27;65.00
57847;BME280;43675;50.030;21.952;2022-12-19T15:03:38;100382.59;;;-4.32;65.06